sensor_id;sensor_type;location;lat;lon;timestamp;P1;durP1;ratioP1;P2;durP2;ratioP2
75419;SDS011;63998;52.488;13.428;2023-04-08T00:00:18;11.15;;;7.00;;
75419;SDS011;63998;52.488;13.428;2023-04-08T00:02:44;10.77;;;6.57;;
75419;SDS011;63998;52.488;13.428;2023-04-08T00:05:09;11.13;;;6.60;;
75419;SDS011;63998;52.488;13.428;2023-04-08T00:07:35;13.25;;;7.80;;
75419;SDS011;63998;52.488;13.428;2023-04-08T00:10:04;13.82;;;7.47;;
75419;SDS011;63998;52.488;13.428;2023-04-08T00:14:57;11.23;;;6.22;;
75419;SDS011;63998;52.488;13.428;2023-04-08T00:17:25;12.67;;;7.00;;
75419;SDS011;63998;52.488;13.428;2023-04-08T00:19:51;12.55;;;7.28;;
75419;SDS011;63998;52.488;13.428;2023-04-08T00:22:16;14.57;;;7.28;;
75419;SDS011;63998;52.488;13.428;2023-04-08T00:24:45;15.50;;;8.65;;
75419;SDS011;63998;52.488;13.428;2023-04-08T00:27:10;14.30;;;7.90;;
75419;SDS011;63998;52.488;13.428;2023-04-08T00:29:37;15.00;;;8.27;;
75419;SDS011;63998;52.488;13.428;2023-04-08T00:32:03;14.77;;;8.00;;
75419;SDS011;63998;52.488;13.428;2023-04-08T00:34:28;17.85;;;8.85;;
75419;SDS011;63998;52.488;13.428;2023-04-08T00:36:54;19.00;;;8.40;;
75419;SDS011;63998;52.488;13.428;2023-04-08T00:39:20;19.48;;;9.15;;
75419;SDS011;63998;52.488;13.428;2023-04-08T00:41:47;16.58;;;9.07;;
75419;SDS011;63998;52.488;13.428;2023-04-08T00:44:13;19.58;;;8.98;;
75419;SDS011;63998;52.488;13.428;2023-04-08T00:46:41;17.90;;;9.75;;
75419;SDS011;63998;52.488;13.428;2023-04-08T00:49:06;19.10;;;10.00;;
75419;SDS011;63998;52.488;13.428;2023-04-08T00:51:32;21.92;;;10.35;;
75419;SDS011;63998;52.488;13.428;2023-04-08T00:54:00;18.83;;;9.40;;
75419;SDS011;63998;52.488;13.428;2023-04-08T00:56:28;21.77;;;10.93;;
75419;SDS011;63998;52.488;13.428;2023-04-08T00:59:04;20.25;;;11.05;;
75419;SDS011;63998;52.488;13.428;2023-04-08T01:07:45;21.48;;;10.93;;
75419;SDS011;63998;52.488;13.428;2023-04-08T01:12:45;21.58;;;10.52;;
75419;SDS011;63998;52.488;13.428;2023-04-08T01:15:16;21.00;;;10.45;;
75419;SDS011;63998;52.488;13.428;2023-04-08T01:17:44;23.50;;;10.88;;
75419;SDS011;63998;52.488;13.428;2023-04-08T01:20:12;20.48;;;10.27;;
75419;SDS011;63998;52.488;13.428;2023-04-08T01:25:31;22.23;;;10.70;;
75419;SDS011;63998;52.488;13.428;2023-04-08T01:27:59;24.13;;;10.68;;
75419;SDS011;63998;52.488;13.428;2023-04-08T01:30:26;22.10;;;10.38;;
75419;SDS011;63998;52.488;13.428;2023-04-08T01:32:54;20.90;;;10.93;;
75419;SDS011;63998;52.488;13.428;2023-04-08T01:35:21;24.00;;;11.25;;
75419;SDS011;63998;52.488;13.428;2023-04-08T01:37:47;25.25;;;10.90;;
75419;SDS011;63998;52.488;13.428;2023-04-08T01:40:16;20.70;;;11.05;;
75419;SDS011;63998;52.488;13.428;2023-04-08T01:42:43;28.63;;;12.07;;
75419;SDS011;63998;52.488;13.428;2023-04-08T01:45:13;24.33;;;11.10;;
75419;SDS011;63998;52.488;13.428;2023-04-08T01:47:44;22.38;;;11.32;;
75419;SDS011;63998;52.488;13.428;2023-04-08T01:50:17;27.60;;;11.82;;
75419;SDS011;63998;52.488;13.428;2023-04-08T01:52:43;26.80;;;11.40;;
75419;SDS011;63998;52.488;13.428;2023-04-08T01:55:13;27.08;;;12.35;;
75419;SDS011;63998;52.488;13.428;2023-04-08T01:57:40;28.90;;;12.10;;
75419;SDS011;63998;52.488;13.428;2023-04-08T02:00:11;24.98;;;11.15;;
75419;SDS011;63998;52.488;13.428;2023-04-08T02:02:39;24.80;;;11.10;;
75419;SDS011;63998;52.488;13.428;2023-04-08T02:05:08;26.05;;;13.32;;
75419;SDS011;63998;52.488;13.428;2023-04-08T02:07:33;29.65;;;12.02;;
75419;SDS011;63998;52.488;13.428;2023-04-08T02:10:01;29.13;;;13.32;;
75419;SDS011;63998;52.488;13.428;2023-04-08T02:12:27;27.02;;;12.15;;
75419;SDS011;63998;52.488;13.428;2023-04-08T02:14:52;28.42;;;12.10;;
75419;SDS011;63998;52.488;13.428;2023-04-08T02:20:10;27.00;;;12.70;;
75419;SDS011;63998;52.488;13.428;2023-04-08T02:25:27;24.92;;;12.40;;
75419;SDS011;63998;52.488;13.428;2023-04-08T02:27:56;26.63;;;12.57;;
75419;SDS011;63998;52.488;13.428;2023-04-08T02:30:24;29.23;;;12.65;;
75419;SDS011;63998;52.488;13.428;2023-04-08T02:32:52;28.73;;;12.40;;
75419;SDS011;63998;52.488;13.428;2023-04-08T02:35:18;32.28;;;13.85;;
75419;SDS011;63998;52.488;13.428;2023-04-08T02:37:45;29.13;;;12.60;;
75419;SDS011;63998;52.488;13.428;2023-04-08T02:40:22;29.08;;;12.98;;
75419;SDS011;63998;52.488;13.428;2023-04-08T02:42:51;25.00;;;11.30;;
75419;SDS011;63998;52.488;13.428;2023-04-08T02:45:18;29.00;;;12.45;;
75419;SDS011;63998;52.488;13.428;2023-04-08T02:47:43;28.95;;;12.55;;
75419;SDS011;63998;52.488;13.428;2023-04-08T02:50:09;28.52;;;12.15;;
75419;SDS011;63998;52.488;13.428;2023-04-08T02:52:34;30.50;;;12.57;;
75419;SDS011;63998;52.488;13.428;2023-04-08T02:55:02;24.25;;;11.32;;
75419;SDS011;63998;52.488;13.428;2023-04-08T02:57:30;27.17;;;11.93;;
75419;SDS011;63998;52.488;13.428;2023-04-08T02:59:56;25.85;;;11.60;;
75419;SDS011;63998;52.488;13.428;2023-04-08T03:02:21;29.73;;;11.93;;
75419;SDS011;63998;52.488;13.428;2023-04-08T03:04:46;31.07;;;13.50;;
75419;SDS011;63998;52.488;13.428;2023-04-08T03:07:14;29.33;;;13.73;;
75419;SDS011;63998;52.488;13.428;2023-04-08T03:09:40;28.77;;;13.20;;
75419;SDS011;63998;52.488;13.428;2023-04-08T03:12:10;32.17;;;14.73;;
75419;SDS011;63998;52.488;13.428;2023-04-08T03:14:42;31.95;;;13.13;;
75419;SDS011;63998;52.488;13.428;2023-04-08T03:17:07;24.15;;;12.77;;
75419;SDS011;63998;52.488;13.428;2023-04-08T03:19:33;29.75;;;13.48;;
75419;SDS011;63998;52.488;13.428;2023-04-08T03:22:00;40.83;;;17.92;;
75419;SDS011;63998;52.488;13.428;2023-04-08T03:24:26;51.72;;;21.48;;
75419;SDS011;63998;52.488;13.428;2023-04-08T03:26:51;70.87;;;27.77;;
75419;SDS011;63998;52.488;13.428;2023-04-08T03:29:16;40.27;;;18.27;;
75419;SDS011;63998;52.488;13.428;2023-04-08T03:31:42;33.77;;;15.60;;
75419;SDS011;63998;52.488;13.428;2023-04-08T03:34:07;30.13;;;14.87;;
75419;SDS011;63998;52.488;13.428;2023-04-08T03:36:32;33.88;;;15.10;;
75419;SDS011;63998;52.488;13.428;2023-04-08T03:38:58;37.05;;;15.35;;
75419;SDS011;63998;52.488;13.428;2023-04-08T03:41:23;33.97;;;14.97;;
75419;SDS011;63998;52.488;13.428;2023-04-08T03:43:48;42.13;;;17.80;;
75419;SDS011;63998;52.488;13.428;2023-04-08T03:46:16;35.25;;;16.42;;
75419;SDS011;63998;52.488;13.428;2023-04-08T03:48:42;34.35;;;13.98;;
75419;SDS011;63998;52.488;13.428;2023-04-08T03:51:09;41.40;;;19.52;;
75419;SDS011;63998;52.488;13.428;2023-04-08T03:53:37;33.30;;;14.02;;
75419;SDS011;63998;52.488;13.428;2023-04-08T03:56:02;34.23;;;15.83;;
75419;SDS011;63998;52.488;13.428;2023-04-08T03:58:28;37.97;;;17.35;;
75419;SDS011;63998;52.488;13.428;2023-04-08T04:00:53;33.60;;;16.90;;
75419;SDS011;63998;52.488;13.428;2023-04-08T04:03:19;36.95;;;15.65;;
75419;SDS011;63998;52.488;13.428;2023-04-08T04:05:45;50.38;;;20.88;;
75419;SDS011;63998;52.488;13.428;2023-04-08T04:08:12;33.13;;;14.88;;
75419;SDS011;63998;52.488;13.428;2023-04-08T04:10:38;39.70;;;18.40;;
75419;SDS011;63998;52.488;13.428;2023-04-08T04:13:05;41.13;;;18.08;;
75419;SDS011;63998;52.488;13.428;2023-04-08T04:15:31;43.83;;;17.70;;
75419;SDS011;63998;52.488;13.428;2023-04-08T04:17:56;33.55;;;14.52;;
75419;SDS011;63998;52.488;13.428;2023-04-08T04:20:21;32.15;;;12.70;;
75419;SDS011;63998;52.488;13.428;2023-04-08T04:22:50;35.53;;;16.38;;
75419;SDS011;63998;52.488;13.428;2023-04-08T04:25:15;53.53;;;23.77;;
75419;SDS011;63998;52.488;13.428;2023-04-08T04:27:41;38.90;;;17.00;;
75419;SDS011;63998;52.488;13.428;2023-04-08T04:30:06;33.35;;;15.93;;
75419;SDS011;63998;52.488;13.428;2023-04-08T04:32:33;35.58;;;14.88;;
75419;SDS011;63998;52.488;13.428;2023-04-08T04:34:58;37.92;;;17.52;;
75419;SDS011;63998;52.488;13.428;2023-04-08T04:37:26;34.38;;;14.40;;
75419;SDS011;63998;52.488;13.428;2023-04-08T04:39:52;48.80;;;20.63;;
75419;SDS011;63998;52.488;13.428;2023-04-08T04:42:17;42.63;;;18.67;;
75419;SDS011;63998;52.488;13.428;2023-04-08T04:44:45;41.65;;;16.73;;
75419;SDS011;63998;52.488;13.428;2023-04-08T04:47:13;43.17;;;17.33;;
75419;SDS011;63998;52.488;13.428;2023-04-08T04:49:40;56.75;;;21.40;;
75419;SDS011;63998;52.488;13.428;2023-04-08T04:52:05;64.33;;;26.93;;
75419;SDS011;63998;52.488;13.428;2023-04-08T04:54:30;39.55;;;16.02;;
75419;SDS011;63998;52.488;13.428;2023-04-08T04:56:58;55.17;;;23.47;;
75419;SDS011;63998;52.488;13.428;2023-04-08T04:59:26;38.67;;;16.38;;
75419;SDS011;63998;52.488;13.428;2023-04-08T05:01:51;36.25;;;15.60;;
75419;SDS011;63998;52.488;13.428;2023-04-08T05:04:19;34.58;;;14.65;;
75419;SDS011;63998;52.488;13.428;2023-04-08T05:06:44;53.55;;;23.10;;
75419;SDS011;63998;52.488;13.428;2023-04-08T05:09:12;42.03;;;17.45;;
75419;SDS011;63998;52.488;13.428;2023-04-08T05:11:37;34.50;;;14.03;;
75419;SDS011;63998;52.488;13.428;2023-04-08T05:14:05;40.13;;;17.88;;
75419;SDS011;63998;52.488;13.428;2023-04-08T05:16:32;36.75;;;16.67;;
75419;SDS011;63998;52.488;13.428;2023-04-08T05:19:00;33.17;;;16.25;;
75419;SDS011;63998;52.488;13.428;2023-04-08T05:21:26;33.40;;;14.95;;
75419;SDS011;63998;52.488;13.428;2023-04-08T05:23:52;30.50;;;13.70;;
75419;SDS011;63998;52.488;13.428;2023-04-08T05:26:20;37.28;;;15.27;;
75419;SDS011;63998;52.488;13.428;2023-04-08T05:28:48;37.85;;;15.35;;
75419;SDS011;63998;52.488;13.428;2023-04-08T05:31:15;32.65;;;15.40;;
75419;SDS011;63998;52.488;13.428;2023-04-08T05:33:43;37.63;;;16.95;;
75419;SDS011;63998;52.488;13.428;2023-04-08T05:36:09;37.15;;;15.65;;
75419;SDS011;63998;52.488;13.428;2023-04-08T05:38:35;30.25;;;15.15;;
75419;SDS011;63998;52.488;13.428;2023-04-08T05:41:03;33.95;;;15.27;;
75419;SDS011;63998;52.488;13.428;2023-04-08T05:43:29;35.45;;;15.93;;
75419;SDS011;63998;52.488;13.428;2023-04-08T05:45:56;36.03;;;15.98;;
75419;SDS011;63998;52.488;13.428;2023-04-08T05:48:21;37.33;;;16.10;;
75419;SDS011;63998;52.488;13.428;2023-04-08T05:50:47;33.00;;;14.85;;
75419;SDS011;63998;52.488;13.428;2023-04-08T05:53:12;33.17;;;16.05;;
75419;SDS011;63998;52.488;13.428;2023-04-08T05:55:38;38.95;;;18.05;;
75419;SDS011;63998;52.488;13.428;2023-04-08T05:58:04;43.13;;;18.52;;
75419;SDS011;63998;52.488;13.428;2023-04-08T06:00:32;42.67;;;18.83;;
75419;SDS011;63998;52.488;13.428;2023-04-08T06:03:00;40.85;;;17.27;;
75419;SDS011;63998;52.488;13.428;2023-04-08T06:05:25;75.63;;;31.30;;
75419;SDS011;63998;52.488;13.428;2023-04-08T06:07:53;42.88;;;19.48;;
75419;SDS011;63998;52.488;13.428;2023-04-08T06:10:18;82.73;;;35.33;;
75419;SDS011;63998;52.488;13.428;2023-04-08T06:12:44;83.70;;;33.05;;
75419;SDS011;63998;52.488;13.428;2023-04-08T06:15:09;91.90;;;36.22;;
75419;SDS011;63998;52.488;13.428;2023-04-08T06:17:37;83.68;;;35.03;;
75419;SDS011;63998;52.488;13.428;2023-04-08T06:20:06;47.88;;;21.50;;
75419;SDS011;63998;52.488;13.428;2023-04-08T06:22:34;53.97;;;23.77;;
75419;SDS011;63998;52.488;13.428;2023-04-08T06:25:00;59.97;;;25.90;;
75419;SDS011;63998;52.488;13.428;2023-04-08T06:27:28;52.10;;;23.05;;
75419;SDS011;63998;52.488;13.428;2023-04-08T06:29:53;51.05;;;21.83;;
75419;SDS011;63998;52.488;13.428;2023-04-08T06:32:21;40.08;;;17.88;;
75419;SDS011;63998;52.488;13.428;2023-04-08T06:34:47;47.70;;;22.13;;
75419;SDS011;63998;52.488;13.428;2023-04-08T06:37:12;53.10;;;24.08;;
75419;SDS011;63998;52.488;13.428;2023-04-08T06:39:40;41.55;;;19.50;;
75419;SDS011;63998;52.488;13.428;2023-04-08T06:42:05;57.88;;;25.75;;
75419;SDS011;63998;52.488;13.428;2023-04-08T06:44:31;39.22;;;17.08;;
75419;SDS011;63998;52.488;13.428;2023-04-08T06:46:56;52.42;;;25.25;;
75419;SDS011;63998;52.488;13.428;2023-04-08T06:49:22;57.42;;;26.80;;
75419;SDS011;63998;52.488;13.428;2023-04-08T06:51:47;37.53;;;17.38;;
75419;SDS011;63998;52.488;13.428;2023-04-08T06:54:15;48.10;;;23.05;;
75419;SDS011;63998;52.488;13.428;2023-04-08T06:56:41;56.55;;;26.88;;
75419;SDS011;63998;52.488;13.428;2023-04-08T06:59:08;44.38;;;21.38;;
75419;SDS011;63998;52.488;13.428;2023-04-08T07:01:34;41.37;;;18.97;;
75419;SDS011;63998;52.488;13.428;2023-04-08T07:03:59;47.03;;;21.02;;
75419;SDS011;63998;52.488;13.428;2023-04-08T07:06:26;38.83;;;17.95;;
75419;SDS011;63998;52.488;13.428;2023-04-08T07:08:51;48.75;;;22.02;;
75419;SDS011;63998;52.488;13.428;2023-04-08T07:11:17;45.55;;;19.95;;
75419;SDS011;63998;52.488;13.428;2023-04-08T07:13:45;39.53;;;18.23;;
75419;SDS011;63998;52.488;13.428;2023-04-08T07:16:10;40.17;;;17.48;;
75419;SDS011;63998;52.488;13.428;2023-04-08T07:18:38;47.35;;;20.92;;
75419;SDS011;63998;52.488;13.428;2023-04-08T07:21:05;43.15;;;20.13;;
75419;SDS011;63998;52.488;13.428;2023-04-08T07:23:35;50.15;;;21.95;;
75419;SDS011;63998;52.488;13.428;2023-04-08T07:26:03;44.05;;;20.38;;
75419;SDS011;63998;52.488;13.428;2023-04-08T07:28:29;44.05;;;20.65;;
75419;SDS011;63998;52.488;13.428;2023-04-08T07:33:35;34.35;;;15.10;;
75419;SDS011;63998;52.488;13.428;2023-04-08T07:36:03;32.95;;;16.35;;
75419;SDS011;63998;52.488;13.428;2023-04-08T07:38:28;34.33;;;17.38;;
75419;SDS011;63998;52.488;13.428;2023-04-08T07:40:54;38.47;;;18.92;;
75419;SDS011;63998;52.488;13.428;2023-04-08T07:43:19;35.87;;;15.20;;
75419;SDS011;63998;52.488;13.428;2023-04-08T07:45:44;31.98;;;15.13;;
75419;SDS011;63998;52.488;13.428;2023-04-08T07:48:12;31.98;;;14.93;;
75419;SDS011;63998;52.488;13.428;2023-04-08T07:50:38;33.25;;;16.10;;
75419;SDS011;63998;52.488;13.428;2023-04-08T07:53:06;28.80;;;14.40;;
75419;SDS011;63998;52.488;13.428;2023-04-08T07:55:32;32.45;;;14.32;;
75419;SDS011;63998;52.488;13.428;2023-04-08T07:57:58;32.55;;;14.73;;
75419;SDS011;63998;52.488;13.428;2023-04-08T08:00:28;34.75;;;14.98;;
75419;SDS011;63998;52.488;13.428;2023-04-08T08:02:55;32.08;;;14.32;;
75419;SDS011;63998;52.488;13.428;2023-04-08T08:05:20;25.88;;;13.00;;
75419;SDS011;63998;52.488;13.428;2023-04-08T08:07:48;29.60;;;15.30;;
75419;SDS011;63998;52.488;13.428;2023-04-08T08:10:16;27.42;;;14.32;;
75419;SDS011;63998;52.488;13.428;2023-04-08T08:12:42;26.67;;;13.80;;
75419;SDS011;63998;52.488;13.428;2023-04-08T08:15:07;31.50;;;14.80;;
75419;SDS011;63998;52.488;13.428;2023-04-08T08:17:33;27.20;;;13.90;;
75419;SDS011;63998;52.488;13.428;2023-04-08T08:19:59;31.83;;;14.18;;
75419;SDS011;63998;52.488;13.428;2023-04-08T08:22:25;29.25;;;15.60;;
75419;SDS011;63998;52.488;13.428;2023-04-08T08:24:57;33.35;;;14.75;;
75419;SDS011;63998;52.488;13.428;2023-04-08T08:27:23;30.58;;;14.57;;
75419;SDS011;63998;52.488;13.428;2023-04-08T08:29:48;32.05;;;15.63;;
75419;SDS011;63998;52.488;13.428;2023-04-08T08:32:16;35.10;;;14.35;;
75419;SDS011;63998;52.488;13.428;2023-04-08T08:34:44;30.13;;;14.93;;
75419;SDS011;63998;52.488;13.428;2023-04-08T08:37:10;31.45;;;16.35;;
75419;SDS011;63998;52.488;13.428;2023-04-08T08:39:36;29.77;;;15.00;;
75419;SDS011;63998;52.488;13.428;2023-04-08T08:42:02;32.90;;;15.32;;
75419;SDS011;63998;52.488;13.428;2023-04-08T08:44:28;33.67;;;15.93;;
75419;SDS011;63998;52.488;13.428;2023-04-08T08:46:54;31.42;;;14.77;;
75419;SDS011;63998;52.488;13.428;2023-04-08T08:49:20;29.13;;;15.02;;
75419;SDS011;63998;52.488;13.428;2023-04-08T08:51:48;31.50;;;14.82;;
75419;SDS011;63998;52.488;13.428;2023-04-08T08:54:16;31.92;;;15.55;;
75419;SDS011;63998;52.488;13.428;2023-04-08T08:56:44;31.10;;;14.63;;
75419;SDS011;63998;52.488;13.428;2023-04-08T08:59:13;25.42;;;13.45;;
75419;SDS011;63998;52.488;13.428;2023-04-08T09:01:38;26.03;;;13.07;;
75419;SDS011;63998;52.488;13.428;2023-04-08T09:04:07;27.00;;;13.60;;
75419;SDS011;63998;52.488;13.428;2023-04-08T09:06:44;28.83;;;14.02;;
75419;SDS011;63998;52.488;13.428;2023-04-08T09:09:11;30.70;;;15.13;;
75419;SDS011;63998;52.488;13.428;2023-04-08T09:11:37;27.63;;;14.10;;
75419;SDS011;63998;52.488;13.428;2023-04-08T09:14:16;27.77;;;13.52;;
75419;SDS011;63998;52.488;13.428;2023-04-08T09:16:46;29.95;;;14.48;;
75419;SDS011;63998;52.488;13.428;2023-04-08T09:19:11;30.30;;;14.43;;
75419;SDS011;63998;52.488;13.428;2023-04-08T09:21:37;30.35;;;14.32;;
75419;SDS011;63998;52.488;13.428;2023-04-08T09:24:07;28.95;;;15.27;;
75419;SDS011;63998;52.488;13.428;2023-04-08T09:26:33;28.98;;;14.07;;
75419;SDS011;63998;52.488;13.428;2023-04-08T09:29:04;38.17;;;17.83;;
75419;SDS011;63998;52.488;13.428;2023-04-08T09:34:13;34.40;;;19.08;;
75419;SDS011;63998;52.488;13.428;2023-04-08T09:36:47;38.85;;;19.02;;
75419;SDS011;63998;52.488;13.428;2023-04-08T09:39:14;38.65;;;18.90;;
75419;SDS011;63998;52.488;13.428;2023-04-08T09:41:40;45.05;;;20.25;;
75419;SDS011;63998;52.488;13.428;2023-04-08T09:44:07;35.88;;;18.23;;
75419;SDS011;63998;52.488;13.428;2023-04-08T09:52:15;37.45;;;18.65;;
75419;SDS011;63998;52.488;13.428;2023-04-08T09:57:30;32.75;;;17.45;;
75419;SDS011;63998;52.488;13.428;2023-04-08T10:02:40;33.13;;;16.77;;
75419;SDS011;63998;52.488;13.428;2023-04-08T10:05:09;32.78;;;18.70;;
75419;SDS011;63998;52.488;13.428;2023-04-08T10:07:39;33.47;;;18.20;;
75419;SDS011;63998;52.488;13.428;2023-04-08T10:10:07;31.00;;;15.80;;
75419;SDS011;63998;52.488;13.428;2023-04-08T10:12:35;27.65;;;16.45;;
75419;SDS011;63998;52.488;13.428;2023-04-08T10:17:47;33.92;;;17.52;;
75419;SDS011;63998;52.488;13.428;2023-04-08T10:23:02;33.22;;;18.77;;
75419;SDS011;63998;52.488;13.428;2023-04-08T10:25:37;26.20;;;15.52;;
75419;SDS011;63998;52.488;13.428;2023-04-08T10:33:14;27.75;;;17.00;;
75419;SDS011;63998;52.488;13.428;2023-04-08T10:35:46;30.77;;;18.27;;
75419;SDS011;63998;52.488;13.428;2023-04-08T10:38:13;31.98;;;18.25;;
75419;SDS011;63998;52.488;13.428;2023-04-08T10:40:40;23.10;;;14.20;;
75419;SDS011;63998;52.488;13.428;2023-04-08T10:43:07;22.38;;;12.40;;
75419;SDS011;63998;52.488;13.428;2023-04-08T10:45:36;28.70;;;15.52;;
75419;SDS011;63998;52.488;13.428;2023-04-08T10:50:36;28.75;;;18.23;;
75419;SDS011;63998;52.488;13.428;2023-04-08T10:53:04;28.38;;;15.43;;
75419;SDS011;63998;52.488;13.428;2023-04-08T10:55:30;21.83;;;11.50;;
75419;SDS011;63998;52.488;13.428;2023-04-08T11:00:35;27.65;;;13.40;;
75419;SDS011;63998;52.488;13.428;2023-04-08T11:03:06;43.63;;;22.23;;
75419;SDS011;63998;52.488;13.428;2023-04-08T11:05:33;22.90;;;12.88;;
75419;SDS011;63998;52.488;13.428;2023-04-08T11:08:01;22.23;;;11.45;;
75419;SDS011;63998;52.488;13.428;2023-04-08T11:10:27;26.00;;;13.43;;
75419;SDS011;63998;52.488;13.428;2023-04-08T11:12:56;28.88;;;16.08;;
75419;SDS011;63998;52.488;13.428;2023-04-08T11:15:24;22.77;;;13.15;;
75419;SDS011;63998;52.488;13.428;2023-04-08T11:17:49;25.13;;;13.05;;
75419;SDS011;63998;52.488;13.428;2023-04-08T11:22:43;22.00;;;12.00;;
75419;SDS011;63998;52.488;13.428;2023-04-08T11:25:09;23.17;;;12.73;;
75419;SDS011;63998;52.488;13.428;2023-04-08T11:27:35;23.90;;;13.60;;
75419;SDS011;63998;52.488;13.428;2023-04-08T11:30:05;21.45;;;12.90;;
75419;SDS011;63998;52.488;13.428;2023-04-08T11:32:34;19.45;;;11.63;;
75419;SDS011;63998;52.488;13.428;2023-04-08T11:35:03;24.02;;;13.65;;
75419;SDS011;63998;52.488;13.428;2023-04-08T11:37:41;19.77;;;11.13;;
75419;SDS011;63998;52.488;13.428;2023-04-08T11:40:10;32.40;;;17.55;;
75419;SDS011;63998;52.488;13.428;2023-04-08T11:42:36;19.05;;;10.60;;
75419;SDS011;63998;52.488;13.428;2023-04-08T11:45:09;20.77;;;11.80;;
75419;SDS011;63998;52.488;13.428;2023-04-08T11:47:36;20.67;;;12.52;;
75419;SDS011;63998;52.488;13.428;2023-04-08T11:50:04;17.77;;;10.95;;
75419;SDS011;63998;52.488;13.428;2023-04-08T11:52:41;21.30;;;12.05;;
75419;SDS011;63998;52.488;13.428;2023-04-08T11:55:11;21.60;;;12.25;;
75419;SDS011;63998;52.488;13.428;2023-04-08T11:57:46;20.40;;;12.15;;
75419;SDS011;63998;52.488;13.428;2023-04-08T12:00:13;20.85;;;11.35;;
75419;SDS011;63998;52.488;13.428;2023-04-08T12:02:41;17.88;;;10.88;;
75419;SDS011;63998;52.488;13.428;2023-04-08T12:05:06;16.00;;;9.63;;
75419;SDS011;63998;52.488;13.428;2023-04-08T12:07:32;19.08;;;11.45;;
75419;SDS011;63998;52.488;13.428;2023-04-08T12:09:57;18.33;;;11.00;;
75419;SDS011;63998;52.488;13.428;2023-04-08T12:12:25;17.25;;;11.00;;
75419;SDS011;63998;52.488;13.428;2023-04-08T12:14:53;16.55;;;10.52;;
75419;SDS011;63998;52.488;13.428;2023-04-08T12:17:19;20.83;;;11.98;;
75419;SDS011;63998;52.488;13.428;2023-04-08T12:19:47;14.73;;;9.82;;
75419;SDS011;63998;52.488;13.428;2023-04-08T12:22:16;12.02;;;8.32;;
75419;SDS011;63998;52.488;13.428;2023-04-08T12:24:42;13.20;;;9.10;;
75419;SDS011;63998;52.488;13.428;2023-04-08T12:27:07;11.48;;;8.57;;
75419;SDS011;63998;52.488;13.428;2023-04-08T12:29:32;12.00;;;7.53;;
75419;SDS011;63998;52.488;13.428;2023-04-08T12:31:58;13.45;;;8.07;;
75419;SDS011;63998;52.488;13.428;2023-04-08T12:34:26;11.85;;;7.80;;
75419;SDS011;63998;52.488;13.428;2023-04-08T12:36:51;13.98;;;9.30;;
75419;SDS011;63998;52.488;13.428;2023-04-08T12:39:17;10.50;;;8.50;;
75419;SDS011;63998;52.488;13.428;2023-04-08T12:41:47;10.73;;;7.50;;
75419;SDS011;63998;52.488;13.428;2023-04-08T12:44:12;10.00;;;6.97;;
75419;SDS011;63998;52.488;13.428;2023-04-08T12:46:38;10.05;;;7.28;;
75419;SDS011;63998;52.488;13.428;2023-04-08T12:49:03;11.67;;;8.70;;
75419;SDS011;63998;52.488;13.428;2023-04-08T12:51:28;13.20;;;9.48;;
75419;SDS011;63998;52.488;13.428;2023-04-08T12:53:54;9.55;;;7.72;;
75419;SDS011;63998;52.488;13.428;2023-04-08T12:56:20;9.48;;;7.80;;
75419;SDS011;63998;52.488;13.428;2023-04-08T12:58:46;11.80;;;7.32;;
75419;SDS011;63998;52.488;13.428;2023-04-08T13:01:15;10.75;;;7.68;;
75419;SDS011;63998;52.488;13.428;2023-04-08T13:03:40;16.25;;;10.52;;
75419;SDS011;63998;52.488;13.428;2023-04-08T13:06:08;14.57;;;10.35;;
75419;SDS011;63998;52.488;13.428;2023-04-08T13:08:33;12.47;;;9.43;;
75419;SDS011;63998;52.488;13.428;2023-04-08T13:10:59;11.40;;;8.20;;
75419;SDS011;63998;52.488;13.428;2023-04-08T13:13:24;11.05;;;8.25;;
75419;SDS011;63998;52.488;13.428;2023-04-08T13:15:50;15.25;;;10.93;;
75419;SDS011;63998;52.488;13.428;2023-04-08T13:18:16;19.23;;;11.90;;
75419;SDS011;63998;52.488;13.428;2023-04-08T13:20:41;19.60;;;11.02;;
75419;SDS011;63998;52.488;13.428;2023-04-08T13:23:07;14.05;;;9.40;;
75419;SDS011;63998;52.488;13.428;2023-04-08T13:25:34;18.40;;;12.33;;
75419;SDS011;63998;52.488;13.428;2023-04-08T13:28:00;12.07;;;10.23;;
75419;SDS011;63998;52.488;13.428;2023-04-08T13:30:25;15.00;;;12.10;;
75419;SDS011;63998;52.488;13.428;2023-04-08T13:32:50;31.73;;;27.63;;
75419;SDS011;63998;52.488;13.428;2023-04-08T13:35:16;10.03;;;8.33;;
75419;SDS011;63998;52.488;13.428;2023-04-08T13:37:41;10.17;;;8.10;;
75419;SDS011;63998;52.488;13.428;2023-04-08T13:40:11;11.40;;;9.25;;
75419;SDS011;63998;52.488;13.428;2023-04-08T13:42:37;14.45;;;12.98;;
75419;SDS011;63998;52.488;13.428;2023-04-08T13:45:03;11.52;;;9.15;;
75419;SDS011;63998;52.488;13.428;2023-04-08T13:47:31;16.17;;;12.38;;
75419;SDS011;63998;52.488;13.428;2023-04-08T13:49:58;13.10;;;10.35;;
75419;SDS011;63998;52.488;13.428;2023-04-08T13:52:23;15.33;;;13.20;;
75419;SDS011;63998;52.488;13.428;2023-04-08T13:54:51;11.30;;;8.80;;
75419;SDS011;63998;52.488;13.428;2023-04-08T13:57:16;11.68;;;9.10;;
75419;SDS011;63998;52.488;13.428;2023-04-08T13:59:46;12.23;;;9.43;;
75419;SDS011;63998;52.488;13.428;2023-04-08T14:02:11;12.23;;;9.60;;
75419;SDS011;63998;52.488;13.428;2023-04-08T14:04:39;9.27;;;8.10;;
75419;SDS011;63998;52.488;13.428;2023-04-08T14:09:30;9.87;;;8.23;;
75419;SDS011;63998;52.488;13.428;2023-04-08T14:11:55;11.85;;;9.93;;
75419;SDS011;63998;52.488;13.428;2023-04-08T14:14:21;10.55;;;8.52;;
75419;SDS011;63998;52.488;13.428;2023-04-08T14:16:47;10.13;;;8.68;;
75419;SDS011;63998;52.488;13.428;2023-04-08T14:19:12;15.57;;;14.07;;
75419;SDS011;63998;52.488;13.428;2023-04-08T14:21:40;9.85;;;8.50;;
75419;SDS011;63998;52.488;13.428;2023-04-08T14:24:08;11.45;;;9.52;;
75419;SDS011;63998;52.488;13.428;2023-04-08T14:26:33;11.60;;;9.55;;
75419;SDS011;63998;52.488;13.428;2023-04-08T14:29:02;11.27;;;9.25;;
75419;SDS011;63998;52.488;13.428;2023-04-08T14:31:28;10.73;;;9.15;;
75419;SDS011;63998;52.488;13.428;2023-04-08T14:33:57;11.63;;;9.23;;
75419;SDS011;63998;52.488;13.428;2023-04-08T14:36:22;12.50;;;10.38;;
75419;SDS011;63998;52.488;13.428;2023-04-08T14:38:54;11.82;;;8.80;;
75419;SDS011;63998;52.488;13.428;2023-04-08T14:41:20;16.50;;;13.55;;
75419;SDS011;63998;52.488;13.428;2023-04-08T14:43:50;19.73;;;12.77;;
75419;SDS011;63998;52.488;13.428;2023-04-08T14:46:15;11.50;;;9.23;;
75419;SDS011;63998;52.488;13.428;2023-04-08T14:48:40;11.35;;;9.45;;
75419;SDS011;63998;52.488;13.428;2023-04-08T14:51:08;10.38;;;8.73;;
75419;SDS011;63998;52.488;13.428;2023-04-08T14:53:34;10.50;;;9.40;;
75419;SDS011;63998;52.488;13.428;2023-04-08T14:56:02;10.45;;;9.23;;
75419;SDS011;63998;52.488;13.428;2023-04-08T14:58:29;11.27;;;8.77;;
75419;SDS011;63998;52.488;13.428;2023-04-08T15:00:54;10.60;;;9.05;;
75419;SDS011;63998;52.488;13.428;2023-04-08T15:03:20;11.13;;;9.60;;
75419;SDS011;63998;52.488;13.428;2023-04-08T15:05:46;16.45;;;13.18;;